Terminal Aerodrome Forecast
Issued by NWS

Home | Current Version | Previous Version | Text Only | Print | Product List | Glossary On
Versions: 1 2 3 4 5 6 7 8 9 10 11 12 13 14 15 16 17 18 19 20 21 22 23
000
FTUS42 KFFC 180605 RRA
TAFRYY
TAF
KRYY 180605Z 1806/1906 31003KT P6SM BKN250
     FM180800 31003KT P6SM SCT150 BKN250
     FM181500 32005KT P6SM BKN060
     FM190100 31003KT P6SM SCT080 BKN150
      AMD NOT SKED TIL 181200=

USA.gov is the U.S. government's official web portal to all federal, state and local government web resources and services.